createdAt,value
2023-02-16T00:02:19.033Z,5.07
2023-02-16T00:05:27.614Z,6.78
2023-02-16T00:08:30.160Z,5.72
2023-02-16T00:11:53.466Z,5.85
2023-02-16T00:14:56.052Z,7.85
2023-02-16T00:18:00.739Z,6.43
2023-02-16T00:21:03.373Z,6.13
2023-02-16T00:24:06.610Z,8.65
2023-02-16T00:27:14.300Z,7.22
2023-02-16T00:30:19.801Z,6.10
2023-02-16T00:33:25.368Z,6.68
2023-02-16T00:36:27.912Z,6.70
2023-02-16T00:39:30.893Z,6.93
2023-02-16T00:42:36.435Z,6.22
2023-02-16T00:45:41.483Z,6.53
2023-02-16T00:48:45.277Z,4.85
2023-02-16T00:51:48.993Z,6.35
2023-02-16T00:54:51.563Z,6.63
2023-02-16T00:57:58.780Z,6.90
2023-02-16T01:04:07.716Z,6.13
2023-02-16T01:07:33.596Z,8.93
2023-02-16T01:10:56.396Z,5.88
2023-02-16T01:13:59.142Z,11.40
2023-02-16T01:17:01.746Z,8.85
2023-02-16T01:20:05.560Z,6.22
2023-02-16T01:23:09.665Z,5.95
2023-02-16T01:26:15.057Z,16.67
2023-02-16T01:29:20.322Z,8.70
2023-02-16T01:32:25.514Z,7.30
2023-02-16T01:35:32.458Z,13.98
2023-02-16T01:38:35.190Z,6.53
2023-02-16T01:41:43.686Z,5.68
2023-02-16T01:44:57.120Z,6.18
2023-02-16T01:48:06.029Z,5.78
2023-02-16T01:51:17.475Z,5.00
2023-02-16T01:54:40.767Z,6.00
2023-02-16T01:57:45.428Z,5.22
2023-02-16T02:00:57.410Z,5.55
2023-02-16T02:04:23.403Z,5.05
2023-02-16T02:07:38.031Z,7.15
2023-02-16T02:11:08.666Z,10.77
2023-02-16T02:14:33.649Z,12.15
2023-02-16T02:17:37.710Z,9.65
2023-02-16T02:21:23.340Z,9.15
2023-02-16T02:24:58.740Z,7.82
2023-02-16T02:28:15.523Z,11.00
2023-02-16T02:31:59.340Z,7.03
2023-02-16T02:35:23.798Z,9.20
2023-02-16T02:38:52.286Z,8.75
2023-02-16T02:42:05.284Z,8.38
2023-02-16T02:45:24.377Z,9.50
2023-02-16T02:48:34.999Z,7.32
2023-02-16T02:51:40.590Z,11.23
2023-02-16T02:55:05.856Z,10.32
2023-02-16T02:58:31.445Z,10.63
2023-02-16T03:01:37.060Z,8.73
2023-02-16T03:04:39.921Z,9.10
2023-02-16T03:07:47.425Z,7.90
2023-02-16T03:11:16.906Z,7.55
2023-02-16T03:14:27.128Z,5.63
2023-02-16T03:17:54.498Z,8.35
2023-02-16T03:21:19.206Z,5.55
2023-02-16T03:24:51.598Z,6.38
2023-02-16T03:28:14.868Z,4.97
2023-02-16T03:31:22.471Z,6.55
2023-02-16T03:34:25.674Z,6.30
2023-02-16T03:37:28.326Z,5.70
2023-02-16T03:40:35.388Z,6.28
2023-02-16T03:46:40.428Z,6.60
2023-02-16T03:49:42.958Z,7.30
2023-02-16T03:52:45.646Z,6.95
2023-02-16T03:55:49.259Z,7.43
2023-02-16T03:58:52.025Z,7.45
2023-02-16T04:01:55.479Z,7.38
2023-02-16T04:04:58.776Z,7.28
2023-02-16T04:08:01.496Z,7.55
2023-02-16T04:11:24.183Z,5.53
2023-02-16T04:14:26.944Z,5.53
2023-02-16T04:17:29.548Z,6.53
2023-02-16T04:20:33.602Z,5.22
2023-02-16T04:23:36.298Z,11.40
2023-02-16T04:26:39.018Z,5.47
2023-02-16T04:29:41.796Z,6.40
2023-02-16T04:32:44.693Z,7.20
2023-02-16T04:35:47.320Z,12.18
2023-02-16T04:38:50.091Z,7.80
2023-02-16T04:41:52.669Z,4.78
2023-02-16T04:44:55.287Z,6.10
2023-02-16T04:47:57.840Z,8.52
2023-02-16T04:51:00.716Z,7.47
2023-02-16T04:54:03.545Z,11.35
2023-02-16T04:57:06.271Z,16.25
2023-02-16T05:00:10.150Z,8.30
2023-02-16T05:03:12.779Z,10.00
2023-02-16T05:06:15.597Z,7.00
2023-02-16T05:09:18.144Z,6.68
2023-02-16T05:12:39.409Z,7.63
2023-02-16T05:15:42.307Z,7.15
2023-02-16T05:18:45.221Z,8.20
2023-02-16T05:21:47.884Z,7.22
2023-02-16T05:24:51.204Z,7.72
2023-02-16T05:27:54.727Z,8.98
2023-02-16T05:30:57.948Z,7.30
2023-02-16T05:34:00.811Z,6.38
2023-02-16T05:37:03.515Z,6.68
2023-02-16T05:40:06.826Z,6.80
2023-02-16T05:43:09.454Z,6.10
2023-02-16T05:46:12.514Z,6.80
2023-02-16T05:49:16.226Z,7.45
2023-02-16T05:52:19.134Z,7.70
2023-02-16T05:55:21.769Z,7.38
2023-02-16T05:58:24.483Z,7.30
2023-02-16T06:01:28.581Z,9.52
2023-02-16T06:04:32.836Z,6.38
2023-02-16T06:07:35.608Z,7.43
2023-02-16T06:10:38.170Z,6.75
2023-02-16T06:13:41.176Z,8.68
2023-02-16T06:16:45.769Z,7.93
2023-02-16T06:19:48.681Z,6.60
2023-02-16T06:22:51.484Z,6.63
2023-02-16T06:25:54.492Z,8.82
2023-02-16T06:28:57.552Z,6.05
2023-02-16T06:32:00.517Z,9.48
2023-02-16T06:35:03.447Z,7.45
2023-02-16T06:38:06.187Z,6.38
2023-02-16T06:41:09.566Z,7.05
2023-02-16T06:44:16.404Z,7.68
2023-02-16T06:47:19.304Z,6.75
2023-02-16T06:50:22.068Z,6.93
2023-02-16T06:53:25.951Z,5.88
2023-02-16T06:56:28.507Z,6.78
2023-02-16T06:59:31.556Z,8.40
2023-02-16T07:02:35.959Z,7.25
2023-02-16T07:05:38.832Z,7.07
2023-02-16T07:08:41.444Z,7.35
2023-02-16T07:11:44.586Z,8.05
2023-02-16T07:14:47.705Z,7.45
2023-02-16T07:17:50.561Z,9.93
2023-02-16T07:20:53.634Z,10.98
2023-02-16T07:23:56.284Z,20.65
2023-02-16T07:26:59.276Z,19.70
2023-02-16T07:30:02.129Z,7.28
2023-02-16T07:33:06.105Z,8.63
2023-02-16T07:36:10.348Z,8.38
2023-02-16T07:39:13.038Z,7.88
2023-02-16T07:42:16.203Z,6.90
2023-02-16T07:45:23.508Z,8.02
2023-02-16T07:48:26.439Z,8.25
2023-02-16T07:51:31.759Z,10.10
2023-02-16T07:54:34.514Z,11.10
2023-02-16T07:57:39.286Z,9.57
2023-02-16T08:00:42.230Z,10.68
2023-02-16T08:03:44.881Z,11.80
2023-02-16T08:06:48.946Z,12.70
2023-02-16T08:09:51.634Z,12.35
2023-02-16T08:12:54.792Z,15.55
2023-02-16T08:15:57.426Z,13.27
2023-02-16T08:19:01.303Z,14.85
2023-02-16T08:22:07.021Z,15.13
2023-02-16T08:25:10.003Z,15.27
2023-02-16T08:28:15.196Z,17.13
2023-02-16T08:31:21.020Z,15.38
2023-02-16T08:34:24.610Z,15.70
2023-02-16T08:37:27.414Z,14.90
2023-02-16T08:40:30.240Z,14.45
2023-02-16T08:43:33.029Z,14.05
2023-02-16T08:46:37.426Z,13.82
2023-02-16T08:49:40.774Z,14.68
2023-02-16T08:52:43.509Z,15.38
2023-02-16T08:55:52.514Z,12.70
2023-02-16T08:58:55.220Z,13.85
2023-02-16T09:01:59.350Z,13.07
2023-02-16T09:05:01.990Z,14.05
2023-02-16T09:08:05.524Z,13.45
2023-02-16T09:11:11.597Z,12.07
2023-02-16T09:14:15.732Z,13.27
2023-02-16T09:17:18.573Z,13.75
2023-02-16T09:20:21.799Z,10.57
2023-02-16T09:23:24.378Z,12.02
2023-02-16T09:26:29.662Z,11.20
2023-02-16T09:29:32.409Z,10.18
2023-02-16T09:32:35.435Z,11.00
2023-02-16T09:35:41.702Z,9.88
2023-02-16T09:38:44.916Z,10.52
2023-02-16T09:42:09.342Z,14.68
2023-02-16T09:45:14.533Z,13.57
2023-02-16T09:48:24.159Z,14.00
2023-02-16T09:51:36.019Z,11.68
2023-02-16T09:54:58.200Z,13.23
2023-02-16T09:58:16.162Z,11.95
2023-02-16T10:01:40.441Z,13.23
2023-02-16T10:05:04.990Z,10.88
2023-02-16T10:08:13.537Z,13.55
2023-02-16T10:11:40.995Z,12.00
2023-02-16T10:14:50.323Z,11.20
2023-02-16T10:18:00.353Z,13.82
2023-02-16T10:21:09.107Z,12.32
2023-02-16T10:24:12.833Z,11.93
2023-02-16T10:27:17.385Z,13.15
2023-02-16T10:30:22.750Z,12.45
2023-02-16T10:33:34.454Z,11.32
2023-02-16T10:37:13.628Z,11.20
2023-02-16T10:40:32.038Z,11.45
2023-02-16T10:43:48.595Z,11.52
2023-02-16T10:47:02.046Z,11.18
2023-02-16T10:50:07.397Z,13.43
2023-02-16T10:53:15.012Z,14.55
2023-02-16T10:56:42.126Z,12.85
2023-02-16T10:59:46.361Z,12.68
2023-02-16T11:02:52.870Z,11.85
2023-02-16T11:05:56.110Z,11.95
2023-02-16T11:09:01.564Z,11.57
2023-02-16T11:12:23.125Z,13.20
2023-02-16T11:15:27.381Z,12.65
2023-02-16T11:18:36.904Z,11.80
2023-02-16T11:21:44.601Z,11.35
2023-02-16T11:24:47.750Z,11.70
2023-02-16T11:27:56.320Z,12.27
2023-02-16T11:31:20.904Z,12.25
2023-02-16T11:34:31.727Z,12.32
2023-02-16T11:37:34.582Z,13.73
2023-02-16T11:40:38.743Z,12.10
2023-02-16T11:43:42.620Z,13.68
2023-02-16T11:46:45.960Z,13.77
2023-02-16T11:49:50.648Z,13.13
2023-02-16T11:52:58.670Z,12.93
2023-02-16T11:56:24.125Z,14.45
2023-02-16T11:59:27.549Z,14.13
2023-02-16T12:03:00.761Z,13.40
2023-02-16T12:06:08.289Z,12.45
2023-02-16T12:09:20.303Z,14.45
2023-02-16T12:12:34.375Z,11.98
2023-02-16T12:16:08.290Z,15.20
2023-02-16T12:19:17.654Z,13.10
2023-02-16T12:22:48.126Z,11.88
2023-02-16T12:26:33.398Z,15.43
2023-02-16T12:30:10.354Z,13.38
2023-02-16T12:33:19.008Z,13.18
2023-02-16T12:36:39.632Z,12.88
2023-02-16T12:40:13.618Z,14.02
2023-02-16T12:43:38.489Z,12.77
2023-02-16T12:46:49.161Z,13.13
2023-02-16T12:50:01.822Z,14.23
2023-02-16T12:53:14.682Z,13.65
2023-02-16T12:56:22.068Z,13.38
2023-02-16T13:03:14.535Z,11.60
2023-02-16T13:06:34.112Z,11.77
2023-02-16T13:09:46.896Z,12.43
2023-02-16T13:13:01.289Z,12.27
2023-02-16T13:16:28.900Z,14.48
2023-02-16T13:19:32.955Z,11.80
2023-02-16T13:22:51.248Z,13.27
2023-02-16T13:26:11.375Z,13.25
2023-02-16T13:29:41.909Z,12.85
2023-02-16T13:32:54.437Z,13.82
2023-02-16T13:36:07.869Z,13.45
2023-02-16T13:39:24.098Z,13.32
2023-02-16T13:42:50.495Z,12.27
2023-02-16T13:45:55.113Z,13.57
2023-02-16T13:48:57.998Z,13.23
2023-02-16T13:52:01.093Z,12.27
2023-02-16T13:55:08.566Z,12.57
2023-02-16T13:58:14.368Z,14.57
2023-02-16T14:01:32.486Z,14.95
2023-02-16T14:04:35.942Z,13.65
2023-02-16T14:07:38.686Z,13.73
2023-02-16T14:10:53.660Z,13.95
2023-02-16T14:13:56.876Z,12.30
2023-02-16T14:17:15.285Z,13.48
2023-02-16T14:20:18.497Z,12.95
2023-02-16T14:23:29.591Z,13.98
2023-02-16T14:26:33.592Z,11.57
2023-02-16T14:29:59.814Z,14.77
2023-02-16T14:33:16.410Z,14.93
2023-02-16T14:36:27.312Z,14.98
2023-02-16T14:39:30.803Z,14.55
2023-02-16T14:42:35.258Z,14.20
2023-02-16T14:45:48.941Z,12.45
2023-02-16T14:49:24.663Z,11.80
2023-02-16T14:52:41.067Z,13.90
2023-02-16T14:56:17.292Z,13.73
2023-02-16T14:59:38.733Z,15.50
2023-02-16T15:02:55.814Z,15.88
2023-02-16T15:05:59.498Z,15.88
2023-02-16T15:09:07.242Z,15.05
2023-02-16T15:12:22.742Z,14.90
2023-02-16T15:15:33.173Z,15.05
2023-02-16T15:18:46.903Z,15.27
2023-02-16T15:22:11.362Z,17.75
2023-02-16T15:25:31.061Z,17.88
2023-02-16T15:28:40.038Z,18.30
2023-02-16T15:31:44.878Z,18.40
2023-02-16T15:34:50.815Z,15.60
2023-02-16T15:38:01.684Z,13.07
2023-02-16T15:41:16.679Z,16.77
2023-02-16T15:44:39.552Z,35.03
2023-02-16T15:47:45.882Z,25.10
2023-02-16T15:50:51.202Z,19.98
2023-02-16T15:54:04.540Z,11.30
2023-02-16T15:57:31.413Z,34.88
2023-02-16T16:00:34.571Z,11.63
2023-02-16T16:03:37.455Z,11.07
2023-02-16T16:06:41.112Z,10.38
2023-02-16T16:09:46.030Z,16.45
2023-02-16T16:12:49.942Z,10.40
2023-02-16T16:15:54.594Z,12.00
2023-02-16T16:19:06.835Z,14.80
2023-02-16T16:22:37.224Z,10.23
2023-02-16T16:25:48.826Z,15.65
2023-02-16T16:28:52.871Z,11.38
2023-02-16T16:31:56.941Z,8.75
2023-02-16T16:35:00.651Z,10.15
2023-02-16T16:38:04.056Z,9.05
2023-02-16T16:41:07.225Z,12.27
2023-02-16T16:44:28.548Z,11.43
2023-02-16T16:47:41.457Z,8.77
2023-02-16T16:50:44.525Z,8.13
2023-02-16T16:53:53.751Z,8.48
2023-02-16T16:56:57.234Z,7.20
2023-02-16T17:00:00.158Z,10.73
2023-02-16T17:03:05.161Z,8.65
2023-02-16T17:06:08.965Z,8.98
2023-02-16T17:09:12.022Z,8.77
2023-02-16T17:12:15.378Z,8.65
2023-02-16T17:15:46.103Z,8.85
2023-02-16T17:18:49.289Z,14.32
2023-02-16T17:21:52.198Z,10.85
2023-02-16T17:24:56.270Z,9.88
2023-02-16T17:27:59.799Z,10.05
2023-02-16T17:31:07.870Z,24.48
2023-02-16T17:34:10.775Z,13.35
2023-02-16T17:37:14.480Z,10.50
2023-02-16T17:40:22.041Z,9.52
2023-02-16T17:43:28.756Z,9.25
2023-02-16T17:46:33.112Z,8.77
2023-02-16T17:49:36.424Z,9.52
2023-02-16T17:52:40.814Z,11.55
2023-02-16T17:55:45.129Z,9.05
2023-02-16T17:58:48.566Z,10.10
2023-02-16T18:01:52.034Z,9.25
2023-02-16T18:04:56.372Z,8.80
2023-02-16T18:07:59.739Z,8.32
2023-02-16T18:11:03.420Z,11.45
2023-02-16T18:14:06.771Z,11.27
2023-02-16T18:17:12.389Z,9.88
2023-02-16T18:20:16.874Z,10.40
2023-02-16T18:23:21.186Z,11.02
2023-02-16T18:26:24.419Z,8.23
2023-02-16T18:29:28.139Z,7.78
2023-02-16T18:32:32.207Z,8.48
2023-02-16T18:35:35.332Z,10.45
2023-02-16T18:38:40.354Z,10.40
2023-02-16T18:41:43.612Z,6.80
2023-02-16T18:44:49.513Z,7.18
2023-02-16T18:47:52.906Z,8.27
2023-02-16T18:50:56.008Z,9.73
2023-02-16T18:53:59.746Z,8.48
2023-02-16T18:57:02.862Z,10.50
2023-02-16T19:00:07.362Z,10.43
2023-02-16T19:03:10.794Z,9.60
2023-02-16T19:06:14.385Z,10.65
2023-02-16T19:09:18.397Z,8.27
2023-02-16T19:12:22.288Z,9.63
2023-02-16T19:15:25.709Z,8.57
2023-02-16T19:18:32.583Z,9.02
2023-02-16T19:21:39.442Z,8.18
2023-02-16T19:27:47.390Z,9.10
2023-02-16T19:30:50.558Z,11.60
2023-02-16T19:33:53.622Z,11.00
2023-02-16T19:36:56.570Z,10.75
2023-02-16T19:39:59.490Z,8.95
2023-02-16T19:43:02.871Z,9.30
2023-02-16T19:46:06.999Z,8.82
2023-02-16T19:49:14.646Z,11.25
2023-02-16T19:52:28.066Z,8.15
2023-02-16T19:55:32.876Z,9.82
2023-02-16T19:58:36.157Z,9.93
2023-02-16T20:01:39.958Z,8.32
2023-02-16T20:04:44.443Z,14.52
2023-02-16T20:07:48.393Z,9.82
2023-02-16T20:10:51.715Z,8.48
2023-02-16T20:13:57.032Z,13.52
2023-02-16T20:17:00.690Z,21.48
2023-02-16T20:20:06.120Z,15.20
2023-02-16T20:23:08.959Z,10.30
2023-02-16T20:26:21.652Z,10.05
2023-02-16T20:29:25.057Z,11.25
2023-02-16T20:32:28.655Z,11.15
2023-02-16T20:35:32.239Z,10.90
2023-02-16T20:38:36.107Z,9.68
2023-02-16T20:41:40.097Z,8.65
2023-02-16T20:44:43.555Z,10.23
2023-02-16T20:47:47.642Z,7.43
2023-02-16T20:51:00.975Z,8.50
2023-02-16T20:54:04.895Z,10.30
2023-02-16T20:57:21.379Z,10.07
2023-02-16T21:00:30.018Z,11.73
2023-02-16T21:03:33.132Z,19.58
2023-02-16T21:06:37.865Z,9.13
2023-02-16T21:09:42.905Z,8.30
2023-02-16T21:12:47.571Z,11.60
2023-02-16T21:15:50.981Z,10.93
2023-02-16T21:18:53.899Z,9.52
2023-02-16T21:21:56.829Z,10.27
2023-02-16T21:24:59.937Z,8.25
2023-02-16T21:28:03.559Z,14.65
2023-02-16T21:31:09.291Z,15.82
2023-02-16T21:34:12.841Z,9.70
2023-02-16T21:37:16.742Z,10.45
2023-02-16T21:40:38.650Z,9.00
2023-02-16T21:43:41.540Z,9.73
2023-02-16T21:46:47.289Z,10.40
2023-02-16T21:49:50.087Z,11.90
2023-02-16T21:52:53.530Z,11.85
2023-02-16T21:56:28.510Z,10.63
2023-02-16T21:59:31.992Z,10.13
2023-02-16T22:02:34.647Z,9.55
2023-02-16T22:05:37.774Z,10.07
2023-02-16T22:08:41.717Z,10.00
2023-02-16T22:11:44.913Z,9.02
2023-02-16T22:14:47.971Z,10.25
2023-02-16T22:17:50.990Z,7.82
2023-02-16T22:20:53.750Z,9.15
2023-02-16T22:23:57.405Z,7.55
2023-02-16T22:27:00.466Z,11.57
2023-02-16T22:30:03.799Z,8.77
2023-02-16T22:33:06.962Z,10.52
2023-02-16T22:36:14.070Z,11.80
2023-02-16T22:39:17.727Z,10.88
2023-02-16T22:42:20.659Z,13.18
2023-02-16T22:45:24.141Z,12.98
2023-02-16T22:48:26.976Z,10.02
2023-02-16T22:51:31.745Z,10.60
2023-02-16T22:54:34.626Z,12.07
2023-02-16T22:57:38.267Z,13.02
2023-02-16T23:00:41.024Z,12.75
2023-02-16T23:03:58.649Z,11.23
2023-02-16T23:10:04.758Z,8.82
2023-02-16T23:13:09.439Z,10.07
2023-02-16T23:16:14.894Z,8.70
2023-02-16T23:19:20.247Z,23.48
2023-02-16T23:22:22.988Z,32.58
2023-02-16T23:25:34.658Z,11.75
2023-02-16T23:28:39.143Z,12.93
2023-02-16T23:31:43.338Z,10.18
2023-02-16T23:34:46.447Z,16.48
2023-02-16T23:37:49.021Z,13.55
2023-02-16T23:40:58.139Z,14.00
2023-02-16T23:44:01.346Z,11.45
2023-02-16T23:47:04.363Z,12.23
2023-02-16T23:50:07.344Z,12.13
2023-02-16T23:53:10.528Z,11.32
2023-02-16T23:56:16.626Z,10.57
2023-02-16T23:59:19.655Z,24.80
